createdAt,value
2022-10-09T00:00:13.268Z,74.8
2022-10-09T00:01:12.414Z,74.7
2022-10-09T00:02:12.462Z,74.8
2022-10-09T00:03:12.428Z,74.8
2022-10-09T00:04:12.798Z,74.9
2022-10-09T00:05:12.862Z,75
2022-10-09T00:06:12.420Z,74.9
2022-10-09T00:07:11.922Z,74.9
2022-10-09T00:08:12.428Z,74.5
2022-10-09T00:09:12.443Z,74.6
2022-10-09T00:10:12.421Z,74.6
2022-10-09T00:11:12.424Z,74.7
2022-10-09T00:12:12.409Z,74.8
2022-10-09T00:13:12.434Z,74.8
2022-10-09T00:14:12.422Z,74.5
2022-10-09T00:15:12.427Z,74.5
2022-10-09T00:16:12.697Z,74.5
2022-10-09T00:17:12.413Z,74.5
2022-10-09T00:18:13.013Z,74.7
2022-10-09T00:19:12.823Z,74.7
2022-10-09T00:20:12.428Z,74.8
2022-10-09T00:21:12.427Z,74.7
2022-10-09T00:22:12.924Z,74.9
2022-10-09T00:23:12.430Z,74.9
2022-10-09T00:24:12.785Z,74.8
2022-10-09T00:25:12.452Z,74.9
2022-10-09T00:26:12.416Z,75.1
2022-10-09T00:27:12.426Z,75.3
2022-10-09T00:28:12.480Z,75.4
2022-10-09T00:29:12.482Z,75.7
2022-10-09T00:30:12.448Z,75.6
2022-10-09T00:31:12.470Z,75.5
2022-10-09T00:33:12.579Z,75.1
2022-10-09T00:34:12.448Z,75.1
2022-10-09T00:35:12.423Z,75
2022-10-09T00:36:12.419Z,74.9
2022-10-09T00:37:11.506Z,74.8
2022-10-09T00:38:13.254Z,74.7
2022-10-09T00:39:12.413Z,74.7
2022-10-09T00:40:12.447Z,74.7
2022-10-09T00:41:13.133Z,74.7
2022-10-09T00:42:12.949Z,75
2022-10-09T00:43:12.530Z,75.1
2022-10-09T00:45:12.795Z,74.9
2022-10-09T00:46:12.554Z,75
2022-10-09T00:47:12.428Z,75.1
2022-10-09T00:48:12.785Z,75
2022-10-09T00:49:12.423Z,75.2
2022-10-09T00:50:12.415Z,75.1
2022-10-09T00:51:12.419Z,75.1
2022-10-09T00:52:12.511Z,75
2022-10-09T00:53:12.429Z,75.1
2022-10-09T00:54:12.843Z,75
2022-10-09T00:55:12.415Z,75.1
2022-10-09T00:56:12.440Z,75.1
2022-10-09T00:57:12.425Z,75.2
2022-10-09T00:58:12.184Z,75.4
2022-10-09T00:59:12.816Z,75.3
2022-10-09T01:00:12.429Z,75.1
2022-10-09T01:01:13.407Z,75.2
2022-10-09T01:02:12.529Z,75.2
2022-10-09T01:03:12.686Z,75.4
2022-10-09T01:04:12.440Z,75.2
2022-10-09T01:05:12.410Z,75.1
2022-10-09T01:06:12.408Z,75.1
2022-10-09T01:07:11.766Z,75.2
2022-10-09T01:08:12.427Z,75
2022-10-09T01:09:12.413Z,75
2022-10-09T01:10:12.433Z,74.9
2022-10-09T01:11:12.420Z,74.9
2022-10-09T01:12:12.800Z,74.7
2022-10-09T01:13:12.420Z,74.7
2022-10-09T01:14:13.048Z,74.9
2022-10-09T01:15:13.241Z,74.8
2022-10-09T01:16:13.278Z,75.1
2022-10-09T01:17:13.029Z,75
2022-10-09T01:18:12.422Z,75
2022-10-09T01:20:12.421Z,75
2022-10-09T01:21:12.831Z,75
2022-10-09T01:22:12.427Z,74.9
2022-10-09T01:23:12.744Z,75.1
2022-10-09T01:24:12.420Z,75
2022-10-09T01:25:12.414Z,75
2022-10-09T01:26:12.422Z,75
2022-10-09T01:27:12.418Z,75.1
2022-10-09T01:28:12.529Z,75.3
2022-10-09T01:30:12.425Z,75.3
2022-10-09T01:31:12.509Z,75.3
2022-10-09T01:32:12.448Z,75.1
2022-10-09T01:33:12.411Z,74.9
2022-10-09T01:34:12.695Z,74.3
2022-10-09T01:35:12.430Z,74.3
2022-10-09T01:36:12.429Z,74.6
2022-10-09T01:37:11.840Z,74.7
2022-10-09T01:38:12.415Z,74.7
2022-10-09T01:39:12.667Z,74.8
2022-10-09T01:40:12.634Z,74.7
2022-10-09T01:41:12.856Z,74.8
2022-10-09T01:42:13.043Z,74.6
2022-10-09T01:43:13.252Z,74.7
2022-10-09T01:44:12.419Z,74.8
2022-10-09T01:45:12.898Z,74.6
2022-10-09T01:46:12.489Z,74.8
2022-10-09T01:47:12.420Z,74.8
2022-10-09T01:48:12.413Z,74.8
2022-10-09T01:49:13.308Z,74.9
2022-10-09T01:50:13.154Z,75
2022-10-09T01:51:12.791Z,75.2
2022-10-09T01:52:13.199Z,75.1
2022-10-09T01:53:12.424Z,75.2
2022-10-09T01:54:12.757Z,75.3
2022-10-09T01:55:12.418Z,75
2022-10-09T01:56:12.410Z,75
2022-10-09T01:57:12.414Z,75
2022-10-09T01:58:12.426Z,74.9
2022-10-09T01:59:15.857Z,74.9
2022-10-09T02:00:12.424Z,75.1
2022-10-09T02:01:12.783Z,75.3
2022-10-09T02:02:12.626Z,75.2
2022-10-09T02:03:12.452Z,75
2022-10-09T02:04:12.952Z,75
2022-10-09T02:05:12.414Z,75.1
2022-10-09T02:06:12.452Z,75.1
2022-10-09T02:07:12.119Z,75.1
2022-10-09T02:08:12.415Z,75.1
2022-10-09T02:09:12.691Z,75.1
2022-10-09T02:10:12.435Z,75.3
2022-10-09T02:11:12.855Z,75.2
2022-10-09T02:12:12.960Z,75.1
2022-10-09T02:13:12.419Z,75
2022-10-09T02:14:12.431Z,74.9
2022-10-09T02:15:12.838Z,74.9
2022-10-09T02:16:12.575Z,74.7
2022-10-09T02:17:12.409Z,75.1
2022-10-09T02:18:12.877Z,75.2
2022-10-09T02:19:12.407Z,75.2
2022-10-09T02:20:12.405Z,75.2
2022-10-09T02:21:12.478Z,75.2
2022-10-09T02:22:12.955Z,75.1
2022-10-09T02:23:12.574Z,75.2
2022-10-09T02:24:12.941Z,75
2022-10-09T02:25:12.421Z,75
2022-10-09T02:26:12.806Z,75
2022-10-09T02:27:12.408Z,75.1
2022-10-09T02:28:12.553Z,75.3
2022-10-09T02:29:12.609Z,75.2
2022-10-09T02:30:12.426Z,75.1
2022-10-09T02:31:12.482Z,75.3
2022-10-09T02:32:12.978Z,75
2022-10-09T02:33:12.441Z,75
2022-10-09T02:34:12.433Z,75.1
2022-10-09T02:35:12.412Z,74.8
2022-10-09T02:36:12.420Z,74.6
2022-10-09T02:37:12.946Z,74.5
2022-10-09T02:38:13.084Z,74.8
2022-10-09T02:39:13.290Z,74.6
2022-10-09T02:40:12.750Z,74.8
2022-10-09T02:41:12.418Z,74.8
2022-10-09T02:42:12.423Z,74.7
2022-10-09T02:43:12.415Z,74.8
2022-10-09T02:44:12.415Z,74.8
2022-10-09T02:45:12.423Z,74.8
2022-10-09T02:46:12.989Z,74.9
2022-10-09T02:47:12.412Z,74.8
2022-10-09T02:48:12.938Z,74.9
2022-10-09T02:49:12.418Z,75
2022-10-09T02:50:12.418Z,74.9
2022-10-09T02:51:13.057Z,74.7
2022-10-09T02:52:13.197Z,74.7
2022-10-09T02:53:12.932Z,74.6
2022-10-09T02:54:13.056Z,74.8
2022-10-09T02:55:12.421Z,75
2022-10-09T02:56:12.413Z,75
2022-10-09T02:57:12.460Z,74.9
2022-10-09T02:58:12.986Z,75.2
2022-10-09T02:59:12.427Z,75.3
2022-10-09T03:00:12.413Z,75.5
2022-10-09T03:01:12.615Z,75.4
2022-10-09T03:02:12.568Z,75.3
2022-10-09T03:03:12.971Z,75.4
2022-10-09T03:04:13.084Z,75.3
2022-10-09T03:05:12.965Z,75.4
2022-10-09T03:06:12.472Z,75.2
2022-10-09T03:07:11.485Z,75.5
2022-10-09T03:08:12.862Z,75.4
2022-10-09T03:09:12.993Z,75.1
2022-10-09T03:10:12.432Z,75.3
2022-10-09T03:11:12.745Z,75.4
2022-10-09T03:12:12.449Z,75.4
2022-10-09T03:13:13.168Z,75.5
2022-10-09T03:14:13.289Z,75.3
2022-10-09T03:15:12.807Z,75.2
2022-10-09T03:16:12.525Z,75
2022-10-09T03:17:13.197Z,75.2
2022-10-09T03:18:12.415Z,75.1
2022-10-09T03:19:12.484Z,75.1
2022-10-09T03:20:12.421Z,75.2
2022-10-09T03:21:12.793Z,75.3
2022-10-09T03:22:12.419Z,75.2
2022-10-09T03:23:12.417Z,75.1
2022-10-09T03:24:12.850Z,75.3
2022-10-09T03:25:13.216Z,75.1
2022-10-09T03:26:12.409Z,75
2022-10-09T03:27:12.425Z,75
2022-10-09T03:28:11.949Z,74.9
2022-10-09T03:29:12.416Z,75.1
2022-10-09T03:30:12.414Z,75.1
2022-10-09T03:31:27.349Z,75
2022-10-09T03:32:13.034Z,75
2022-10-09T03:33:12.409Z,75
2022-10-09T03:34:12.414Z,75.1
2022-10-09T03:35:12.591Z,75
2022-10-09T03:36:12.879Z,74.9
2022-10-09T03:37:11.487Z,74.9
2022-10-09T03:38:12.416Z,75
2022-10-09T03:39:13.003Z,74.9
2022-10-09T03:40:12.406Z,75
2022-10-09T03:41:12.421Z,75.2
2022-10-09T03:42:12.406Z,75.3
2022-10-09T03:43:12.496Z,75.4
2022-10-09T03:44:12.771Z,75.2
2022-10-09T03:45:12.412Z,75.2
2022-10-09T03:46:12.476Z,75.1
2022-10-09T03:47:12.408Z,75.2
2022-10-09T03:48:12.466Z,75.2
2022-10-09T03:49:13.195Z,75
2022-10-09T03:50:12.428Z,75.1
2022-10-09T03:51:12.406Z,75.2
2022-10-09T03:52:13.178Z,75.2
2022-10-09T03:53:12.408Z,75.2
2022-10-09T03:54:12.670Z,75
2022-10-09T03:55:12.888Z,75.2
2022-10-09T03:56:12.520Z,75.1
2022-10-09T03:57:12.411Z,75.1
2022-10-09T03:58:12.420Z,74.8
2022-10-09T03:59:12.668Z,74.8
2022-10-09T04:00:13.017Z,74.7
2022-10-09T04:01:12.469Z,74.6
2022-10-09T04:02:12.457Z,74.5
2022-10-09T04:03:12.436Z,74.6
2022-10-09T04:04:12.968Z,74.4
2022-10-09T04:05:12.412Z,74.6
2022-10-09T04:06:12.414Z,74.6
2022-10-09T04:07:12.145Z,74.6
2022-10-09T04:08:12.420Z,74.6
2022-10-09T04:09:12.404Z,74.5
2022-10-09T04:10:12.631Z,74.4
2022-10-09T04:11:13.059Z,74.5
2022-10-09T04:12:13.094Z,74.5
2022-10-09T04:13:12.406Z,74.5
2022-10-09T04:15:12.997Z,74.7
2022-10-09T04:16:12.492Z,74.7
2022-10-09T04:17:13.268Z,74.5
2022-10-09T04:18:12.443Z,74.4
2022-10-09T04:19:12.411Z,74.4
2022-10-09T04:20:12.521Z,74.5
2022-10-09T04:21:13.395Z,74.4
2022-10-09T04:22:12.630Z,74.3
2022-10-09T04:23:12.418Z,73.9
2022-10-09T04:24:12.441Z,74.1
2022-10-09T04:25:12.424Z,73.9
2022-10-09T04:26:12.650Z,73.9
2022-10-09T04:27:12.568Z,74
2022-10-09T04:28:12.462Z,73.7
2022-10-09T04:29:13.101Z,73.7
2022-10-09T04:30:12.417Z,73.9
2022-10-09T04:31:12.754Z,73.9
2022-10-09T04:32:12.418Z,74.1
2022-10-09T04:33:13.314Z,74
2022-10-09T04:34:12.421Z,74.1
2022-10-09T04:35:12.402Z,74.2
2022-10-09T04:36:12.521Z,74.2
2022-10-09T04:37:11.629Z,74.3
2022-10-09T04:38:12.459Z,74.4
2022-10-09T04:39:12.431Z,74.4
2022-10-09T04:40:12.412Z,74.6
2022-10-09T04:41:12.413Z,74.8
2022-10-09T04:42:12.427Z,74.8
2022-10-09T04:43:12.402Z,74.8
2022-10-09T04:44:12.427Z,75
2022-10-09T04:45:12.416Z,75
2022-10-09T04:46:12.527Z,74.8
2022-10-09T04:47:12.406Z,74.7
2022-10-09T04:48:12.458Z,74.7
2022-10-09T04:49:12.702Z,74.7
2022-10-09T04:50:13.175Z,74.6
2022-10-09T04:51:13.002Z,75
2022-10-09T04:52:12.430Z,75
2022-10-09T04:53:13.047Z,75
2022-10-09T04:54:12.746Z,74.9
2022-10-09T04:55:12.466Z,75
2022-10-09T04:56:12.411Z,74.9
2022-10-09T04:57:12.405Z,74.6
2022-10-09T04:58:12.420Z,74.6
2022-10-09T04:59:12.402Z,74.3
2022-10-09T05:00:12.413Z,74.3
2022-10-09T05:01:12.829Z,74.7
2022-10-09T05:02:12.518Z,74.6
2022-10-09T05:03:12.401Z,74.7
2022-10-09T05:04:13.176Z,74.7
2022-10-09T05:05:12.412Z,74.9
2022-10-09T05:06:12.862Z,74.8
2022-10-09T05:07:11.935Z,75.2
2022-10-09T05:08:12.778Z,75.1
2022-10-09T05:09:12.423Z,75.1
2022-10-09T05:10:12.593Z,75.3
2022-10-09T05:11:12.415Z,75.3
2022-10-09T05:12:12.457Z,75.5
2022-10-09T05:13:12.574Z,75.3
2022-10-09T05:14:12.727Z,75.5
2022-10-09T05:15:12.805Z,75.6
2022-10-09T05:16:13.133Z,75.7
2022-10-09T05:17:14.405Z,75.6
2022-10-09T05:18:12.422Z,75.7
2022-10-09T05:19:12.414Z,75.6
2022-10-09T05:20:12.603Z,75.5
2022-10-09T05:21:12.410Z,75.3
2022-10-09T05:22:13.180Z,75.4
2022-10-09T05:23:12.485Z,75.6
2022-10-09T05:24:12.895Z,75.5
2022-10-09T05:25:13.239Z,75.4
2022-10-09T05:26:12.429Z,75.3
2022-10-09T05:27:12.409Z,75.2
2022-10-09T05:28:13.137Z,75.1
2022-10-09T05:29:13.168Z,75.1
2022-10-09T05:30:12.502Z,75.2
2022-10-09T05:31:13.220Z,75
2022-10-09T05:32:12.494Z,74.8
2022-10-09T05:33:12.464Z,74.8
2022-10-09T05:34:12.530Z,74.7
2022-10-09T05:35:12.403Z,74.7
2022-10-09T05:36:13.046Z,74.6
2022-10-09T05:37:12.400Z,74.7
2022-10-09T05:38:12.404Z,75.1
2022-10-09T05:39:12.218Z,74.9
2022-10-09T05:40:12.441Z,74.6
2022-10-09T05:41:12.429Z,74.2
2022-10-09T05:42:12.400Z,74.4
2022-10-09T05:43:12.402Z,74.6
2022-10-09T05:44:12.412Z,74.5
2022-10-09T05:45:12.436Z,74.7
2022-10-09T05:46:13.160Z,74.6
2022-10-09T05:47:12.483Z,74.3
2022-10-09T05:48:12.416Z,74.4
2022-10-09T05:49:12.466Z,74.3
2022-10-09T05:50:12.409Z,74.6
2022-10-09T05:51:13.237Z,74.7
2022-10-09T05:52:12.794Z,74.8
2022-10-09T05:53:12.418Z,74.8
2022-10-09T05:54:12.405Z,74.9
2022-10-09T05:55:12.994Z,74.7
2022-10-09T05:56:12.569Z,74.8
2022-10-09T05:57:12.510Z,74.8
2022-10-09T05:58:11.743Z,74.8
2022-10-09T05:59:12.414Z,74.5
2022-10-09T06:00:12.500Z,74.4
2022-10-09T06:01:12.470Z,74.5
2022-10-09T06:02:13.261Z,74.4
2022-10-09T06:03:12.408Z,74.5
2022-10-09T06:04:12.416Z,74.6
2022-10-09T06:05:12.835Z,74.9
2022-10-09T06:06:12.436Z,74.7
2022-10-09T06:07:11.996Z,74.6
2022-10-09T06:08:12.414Z,74.4
2022-10-09T06:09:12.408Z,74.4
2022-10-09T06:10:12.411Z,74.3
2022-10-09T06:11:13.130Z,74.4
2022-10-09T06:12:13.089Z,74.4
2022-10-09T06:13:12.405Z,74.5
2022-10-09T06:14:12.392Z,74.6
2022-10-09T06:15:12.553Z,74.4
2022-10-09T06:16:12.616Z,74.5
2022-10-09T06:17:12.891Z,74.4
2022-10-09T06:18:12.405Z,74.6
2022-10-09T06:19:12.429Z,74.6
2022-10-09T06:20:12.418Z,74.7
2022-10-09T06:21:12.496Z,74.5
2022-10-09T06:22:12.408Z,74.5
2022-10-09T06:23:12.414Z,74.3
2022-10-09T06:24:12.405Z,74.5
2022-10-09T06:25:12.409Z,74.5
2022-10-09T06:26:12.493Z,74.5
2022-10-09T06:27:12.416Z,74.4
2022-10-09T06:28:12.526Z,74.4
2022-10-09T06:29:13.116Z,74.4
2022-10-09T06:30:12.398Z,74.4
2022-10-09T06:31:12.509Z,74
2022-10-09T06:32:12.418Z,73.9
2022-10-09T06:33:12.566Z,73.8
2022-10-09T06:34:12.924Z,73.8
2022-10-09T06:35:12.400Z,73.7
2022-10-09T06:36:12.886Z,73.7
2022-10-09T06:37:11.892Z,73.6
2022-10-09T06:38:12.396Z,73.8
2022-10-09T06:39:12.555Z,73.8
2022-10-09T06:40:12.913Z,73.8
2022-10-09T06:41:12.699Z,73.9
2022-10-09T06:42:12.862Z,74
2022-10-09T06:43:12.412Z,74.2
2022-10-09T06:44:16.347Z,74
2022-10-09T06:45:12.405Z,74
2022-10-09T06:46:12.543Z,73.8
2022-10-09T06:47:12.617Z,73.8
2022-10-09T06:48:12.409Z,73.7
2022-10-09T06:49:12.412Z,73.6
2022-10-09T06:50:12.442Z,73.5
2022-10-09T06:51:12.409Z,73.6
2022-10-09T06:52:13.094Z,73.3
2022-10-09T06:53:13.045Z,73.3
2022-10-09T06:54:12.405Z,73.2
2022-10-09T06:55:12.484Z,73.2
2022-10-09T06:56:12.653Z,73.2
2022-10-09T06:57:12.398Z,72.9
2022-10-09T06:58:12.432Z,73
2022-10-09T06:59:12.426Z,72.9
2022-10-09T07:00:12.402Z,72.9
2022-10-09T07:01:12.989Z,73
2022-10-09T07:02:12.671Z,72.8
2022-10-09T07:03:12.614Z,72.5
2022-10-09T07:04:12.715Z,72.5
2022-10-09T07:05:13.137Z,72.6
2022-10-09T07:06:12.409Z,72.7
2022-10-09T07:07:11.476Z,72.7
2022-10-09T07:08:13.092Z,72.5
2022-10-09T07:09:12.402Z,72.3
2022-10-09T07:10:12.424Z,72
2022-10-09T07:11:12.406Z,71.8
2022-10-09T07:12:13.111Z,71.8
2022-10-09T07:13:12.441Z,71.6
2022-10-09T07:14:12.401Z,71.4
2022-10-09T07:15:12.414Z,71.3
2022-10-09T07:16:12.481Z,71.3
2022-10-09T07:17:12.403Z,71.1
2022-10-09T07:18:13.095Z,70.9
2022-10-09T07:19:12.409Z,70.9
2022-10-09T07:20:12.796Z,70.9
2022-10-09T07:21:12.393Z,70.8
2022-10-09T07:22:12.409Z,70.8
2022-10-09T07:23:12.907Z,71
2022-10-09T07:24:12.407Z,71
2022-10-09T07:25:12.397Z,71.2
2022-10-09T07:26:12.685Z,71.1
2022-10-09T07:27:12.402Z,71.2
2022-10-09T07:28:12.892Z,71.3
2022-10-09T07:29:13.067Z,71.2
2022-10-09T07:30:12.571Z,71.2
2022-10-09T07:31:13.135Z,71.2
2022-10-09T07:32:12.814Z,71.1
2022-10-09T07:33:12.952Z,71.1
2022-10-09T07:34:12.397Z,71.2
2022-10-09T07:35:12.434Z,71.2
2022-10-09T07:36:13.247Z,71.2
2022-10-09T07:37:11.482Z,71
2022-10-09T07:38:13.157Z,70.8
2022-10-09T07:39:12.418Z,70.8
2022-10-09T07:40:12.406Z,70.8
2022-10-09T07:41:13.136Z,70.7
2022-10-09T07:42:12.413Z,71
2022-10-09T07:43:12.998Z,70.9
2022-10-09T07:44:13.363Z,71
2022-10-09T07:45:12.410Z,70.9
2022-10-09T07:46:12.542Z,70.9
2022-10-09T07:47:12.962Z,70.8
2022-10-09T07:48:13.212Z,70.7
2022-10-09T07:49:13.093Z,70.7
2022-10-09T07:50:12.429Z,70.3
2022-10-09T07:51:12.413Z,70.4
2022-10-09T07:52:13.235Z,70.5
2022-10-09T07:53:12.883Z,70.3
2022-10-09T07:54:12.394Z,70.3
2022-10-09T07:55:12.393Z,70.4
2022-10-09T07:56:13.167Z,70.1
2022-10-09T07:57:12.405Z,70.1
2022-10-09T07:58:13.202Z,70
2022-10-09T07:59:12.420Z,70
2022-10-09T08:00:12.438Z,70.1
2022-10-09T08:01:17.456Z,69.9
2022-10-09T08:02:12.650Z,70
2022-10-09T08:03:12.752Z,69.8
2022-10-09T08:04:12.451Z,69.8
2022-10-09T08:05:12.598Z,69.9
2022-10-09T08:06:12.443Z,69.9
2022-10-09T08:07:11.475Z,69.7
2022-10-09T08:08:12.410Z,69.8
2022-10-09T08:09:12.434Z,69.5
2022-10-09T08:10:07.153Z,69.6
2022-10-09T08:11:12.415Z,69.4
2022-10-09T08:12:12.411Z,69.5
2022-10-09T08:13:12.830Z,69.4
2022-10-09T08:14:18.067Z,69.5
2022-10-09T08:15:12.425Z,69
2022-10-09T08:16:12.504Z,69
2022-10-09T08:17:12.447Z,69
2022-10-09T08:18:13.105Z,69.1
2022-10-09T08:19:12.897Z,68.8
2022-10-09T08:20:12.411Z,68.8
2022-10-09T08:21:12.768Z,68.9
2022-10-09T08:22:13.299Z,68.7
2022-10-09T08:23:12.408Z,68.3
2022-10-09T08:24:12.471Z,68.4
2022-10-09T08:25:12.815Z,68.2
2022-10-09T08:26:12.399Z,68.1
2022-10-09T08:27:12.420Z,67.8
2022-10-09T08:28:11.545Z,67.7
2022-10-09T08:29:12.427Z,67.5
2022-10-09T08:30:12.853Z,67.5
2022-10-09T08:31:13.173Z,67.1
2022-10-09T08:32:13.138Z,67.1
2022-10-09T08:33:13.131Z,67
2022-10-09T08:34:12.850Z,66.5
2022-10-09T08:35:13.361Z,66
2022-10-09T08:36:12.956Z,66.2
2022-10-09T08:37:12.001Z,65.7
2022-10-09T08:38:30.938Z,65.9
2022-10-09T08:39:12.880Z,66
2022-10-09T08:40:12.439Z,65.7
2022-10-09T08:41:12.428Z,65.9
2022-10-09T08:42:12.424Z,65.9
2022-10-09T08:43:12.436Z,65.6
2022-10-09T08:44:12.452Z,65.4
2022-10-09T08:45:12.410Z,64.7
2022-10-09T08:46:15.294Z,64.7
2022-10-09T08:47:13.106Z,64.9
2022-10-09T08:48:12.401Z,64.8
2022-10-09T08:49:12.405Z,64.4
2022-10-09T08:50:12.414Z,64.2
2022-10-09T08:51:13.057Z,64
2022-10-09T08:52:12.399Z,63.9
2022-10-09T08:53:12.657Z,63.9
2022-10-09T08:54:12.402Z,63.7
2022-10-09T08:55:12.416Z,63.2
2022-10-09T08:56:12.411Z,63.1
2022-10-09T08:57:12.409Z,63.4
2022-10-09T08:58:12.863Z,63.3
2022-10-09T08:59:12.425Z,62.5
2022-10-09T09:00:12.401Z,62.8
2022-10-09T09:01:12.510Z,62.6
2022-10-09T09:02:12.401Z,62.7
2022-10-09T09:03:13.357Z,62.2
2022-10-09T09:04:12.693Z,62
2022-10-09T09:05:12.415Z,61.6
2022-10-09T09:06:12.470Z,60.1
2022-10-09T09:07:11.485Z,61
2022-10-09T09:08:13.142Z,60.2
2022-10-09T09:09:12.418Z,60.8
2022-10-09T09:11:13.169Z,61.1
2022-10-09T09:12:12.421Z,61
2022-10-09T09:13:13.105Z,60.8
2022-10-09T09:14:12.411Z,60.7
2022-10-09T09:15:12.754Z,60.2
2022-10-09T09:16:13.203Z,59.8
2022-10-09T09:17:12.510Z,60.1
2022-10-09T09:18:12.418Z,59.4
2022-10-09T09:19:12.417Z,59.2
2022-10-09T09:20:12.408Z,58.7
2022-10-09T09:21:12.793Z,59.1
2022-10-09T09:22:12.596Z,58.6
2022-10-09T09:23:12.413Z,58.4
2022-10-09T09:24:12.429Z,56.8
2022-10-09T09:25:12.424Z,56.6
2022-10-09T09:26:12.845Z,56.1
2022-10-09T09:27:12.908Z,55.9
2022-10-09T09:28:12.803Z,56.1
2022-10-09T09:29:12.412Z,56.8
2022-10-09T09:30:12.741Z,56.9
2022-10-09T09:31:12.504Z,57.4
2022-10-09T09:32:12.409Z,56.6
2022-10-09T09:33:13.265Z,55.2
2022-10-09T09:34:12.410Z,55.4
2022-10-09T09:35:12.468Z,55.6
2022-10-09T09:36:12.552Z,55.9
2022-10-09T09:37:11.929Z,56
2022-10-09T09:38:12.766Z,54.2
2022-10-09T09:40:02.373Z,54.1
2022-10-09T09:41:12.427Z,54.8
2022-10-09T09:42:12.428Z,53.9
2022-10-09T09:43:12.419Z,54.2
2022-10-09T09:44:12.425Z,54.6
2022-10-09T09:45:12.708Z,53.8
2022-10-09T09:46:12.799Z,54.3
2022-10-09T09:47:12.417Z,55.3
2022-10-09T09:48:12.590Z,55.2
2022-10-09T09:49:13.226Z,53
2022-10-09T09:50:28.810Z,53.7
2022-10-09T09:51:27.539Z,53.8
2022-10-09T09:52:12.424Z,54.1
2022-10-09T09:53:12.784Z,53.9
2022-10-09T09:54:12.427Z,53.7
2022-10-09T09:55:12.421Z,53.1
2022-10-09T09:56:13.228Z,54.1
2022-10-09T09:57:17.074Z,53.9
2022-10-09T09:58:12.413Z,55.1
2022-10-09T09:59:12.419Z,53.5
2022-10-09T10:00:12.419Z,54
2022-10-09T10:01:12.690Z,53.8
2022-10-09T10:02:13.187Z,53.7
2022-10-09T10:03:12.460Z,51.7
2022-10-09T10:04:12.500Z,52.2
2022-10-09T10:05:13.090Z,52.7
2022-10-09T10:06:12.849Z,50.5
2022-10-09T10:07:11.485Z,51.8
2022-10-09T10:08:13.334Z,50.8
2022-10-09T10:09:12.426Z,51.3
2022-10-09T10:10:12.755Z,51
2022-10-09T10:11:12.412Z,53.5
2022-10-09T10:12:13.138Z,52.3
2022-10-09T10:13:12.421Z,52.1
2022-10-09T10:14:12.566Z,52.1
2022-10-09T10:15:12.491Z,52.3
2022-10-09T10:16:12.916Z,52.2
2022-10-09T10:17:15.818Z,51.3
2022-10-09T10:18:12.963Z,51.1
2022-10-09T10:19:12.454Z,51.5
2022-10-09T10:20:13.299Z,51.7
2022-10-09T10:21:12.438Z,49.7
2022-10-09T10:22:13.015Z,51.3
2022-10-09T10:23:12.420Z,51.6
2022-10-09T10:24:12.454Z,51.1
2022-10-09T10:25:14.033Z,51.9
2022-10-09T10:26:12.531Z,51.1
2022-10-09T10:27:12.415Z,52.3
2022-10-09T10:28:12.894Z,50.8
2022-10-09T10:29:12.436Z,50.2
2022-10-09T10:30:12.740Z,51.1
2022-10-09T10:31:12.462Z,51.6
2022-10-09T10:32:12.432Z,49.6
2022-10-09T10:33:12.417Z,50.1
2022-10-09T10:34:12.500Z,48.9
2022-10-09T10:35:12.950Z,48.1
2022-10-09T10:36:13.151Z,48.6
2022-10-09T10:37:11.486Z,48.9
2022-10-09T10:38:13.320Z,49
2022-10-09T10:39:12.624Z,47.5
2022-10-09T10:40:12.537Z,47.6
2022-10-09T10:41:12.446Z,47.4
2022-10-09T10:42:12.435Z,48.3
2022-10-09T10:43:12.466Z,47.9
2022-10-09T10:44:12.551Z,48.8
2022-10-09T10:45:12.887Z,49.2
2022-10-09T10:46:12.525Z,48
2022-10-09T10:47:12.634Z,48.6
2022-10-09T10:48:12.424Z,49
2022-10-09T10:49:12.442Z,48.5
2022-10-09T10:50:12.455Z,47.8
2022-10-09T10:51:12.434Z,47.2
2022-10-09T10:52:12.421Z,49.2
2022-10-09T10:53:12.439Z,48.5
2022-10-09T10:54:12.886Z,48.2
2022-10-09T10:55:12.424Z,47.1
2022-10-09T10:56:12.421Z,47.6
2022-10-09T10:57:12.591Z,47.4
2022-10-09T10:58:11.679Z,46.7
2022-10-09T10:59:12.438Z,46.9
2022-10-09T11:00:12.435Z,45.6
2022-10-09T11:01:12.694Z,46.1
2022-10-09T11:02:12.424Z,44.4
2022-10-09T11:03:12.655Z,45.9
2022-10-09T11:04:12.890Z,47
2022-10-09T11:05:12.430Z,46.4
2022-10-09T11:06:12.893Z,44.7
2022-10-09T11:07:11.494Z,45.3
2022-10-09T11:08:12.418Z,45.8
2022-10-09T11:09:12.436Z,46.7
2022-10-09T11:11:12.427Z,46.7
2022-10-09T11:12:19.660Z,46.9
2022-10-09T11:13:12.447Z,44.4
2022-10-09T11:14:16.604Z,44.2
2022-10-09T11:15:12.441Z,43.5
2022-10-09T11:16:12.517Z,43.8
2022-10-09T11:17:12.453Z,43.2
2022-10-09T11:18:12.448Z,43.1
2022-10-09T11:19:12.442Z,44.3
2022-10-09T11:20:12.445Z,43.2
2022-10-09T11:21:12.790Z,42.8
2022-10-09T11:22:12.440Z,43.3
2022-10-09T11:23:13.344Z,42.1
2022-10-09T11:24:12.424Z,39.9
2022-10-09T11:25:12.450Z,42
2022-10-09T11:26:12.437Z,43.1
2022-10-09T11:27:12.436Z,41.1
2022-10-09T11:28:12.629Z,41.3
2022-10-09T11:29:12.769Z,40
2022-10-09T11:30:12.645Z,40.4
2022-10-09T11:31:12.971Z,41.1
2022-10-09T11:32:12.472Z,41.6
2022-10-09T11:33:12.960Z,42.5
2022-10-09T11:34:12.448Z,42.6
2022-10-09T11:35:12.943Z,42.6
2022-10-09T11:36:12.427Z,42.5
2022-10-09T11:37:11.987Z,41.1
2022-10-09T11:38:12.449Z,41.3
2022-10-09T11:39:12.430Z,43
2022-10-09T11:40:12.451Z,41.6
2022-10-09T11:41:12.449Z,41.8
2022-10-09T11:42:12.438Z,41.9
2022-10-09T11:43:12.744Z,43.1
2022-10-09T11:44:12.440Z,39.9
2022-10-09T11:45:12.998Z,40.2
2022-10-09T11:46:12.629Z,39.7
2022-10-09T11:47:13.095Z,39.7
2022-10-09T11:48:12.445Z,40.1
2022-10-09T11:49:12.461Z,40.1
2022-10-09T11:50:12.436Z,41.4
2022-10-09T11:51:12.447Z,41.5
2022-10-09T11:52:12.535Z,40.9
2022-10-09T11:53:12.833Z,39.8
2022-10-09T11:54:12.440Z,40.9
2022-10-09T11:55:12.464Z,41.5
2022-10-09T11:56:12.979Z,40.6
2022-10-09T11:57:15.253Z,39.9
2022-10-09T11:58:13.008Z,40.1
2022-10-09T11:59:12.445Z,41.1
2022-10-09T12:00:12.445Z,41.3
2022-10-09T12:01:12.552Z,39
2022-10-09T12:02:13.007Z,40.2
2022-10-09T12:03:12.439Z,39.6
2022-10-09T12:04:12.442Z,39.7
2022-10-09T12:05:12.470Z,39.4
2022-10-09T12:06:12.442Z,40.3
2022-10-09T12:07:12.198Z,39.3
2022-10-09T12:08:15.399Z,39.4
2022-10-09T12:09:13.026Z,38.9
2022-10-09T12:10:12.588Z,38.9
2022-10-09T12:11:12.443Z,38.5
2022-10-09T12:12:12.526Z,38.9
2022-10-09T12:14:14.426Z,40.7
2022-10-09T12:15:12.452Z,40.1
2022-10-09T12:16:12.496Z,38.1
2022-10-09T12:17:12.442Z,39.7
2022-10-09T12:18:12.609Z,37.6
2022-10-09T12:19:12.449Z,38.7
2022-10-09T12:20:12.458Z,39.4
2022-10-09T12:21:12.460Z,40.2
2022-10-09T12:22:12.553Z,39.7
2022-10-09T12:23:28.782Z,40.1
2022-10-09T12:24:12.456Z,38.6
2022-10-09T12:25:12.555Z,37.1
2022-10-09T12:26:12.443Z,38.2
2022-10-09T12:27:12.585Z,39.3
2022-10-09T12:28:12.861Z,38.9
2022-10-09T12:29:12.454Z,38.7
2022-10-09T12:30:12.721Z,39.4
2022-10-09T12:31:12.575Z,40.9
2022-10-09T12:32:12.454Z,38.2
2022-10-09T12:33:12.486Z,39.4
2022-10-09T12:34:12.448Z,39.7
2022-10-09T12:35:13.106Z,40.1
2022-10-09T12:36:12.463Z,39.2
2022-10-09T12:37:12.046Z,40.1
2022-10-09T12:38:13.115Z,40.1
2022-10-09T12:39:12.460Z,39.5
2022-10-09T12:40:12.524Z,39
2022-10-09T12:41:15.597Z,39.2
2022-10-09T12:42:12.450Z,39.7
2022-10-09T12:43:13.391Z,40
2022-10-09T12:44:12.465Z,39.4
2022-10-09T12:45:12.727Z,40.3
2022-10-09T12:46:12.584Z,40.5
2022-10-09T12:47:12.462Z,40.7
2022-10-09T12:48:12.460Z,40.1
2022-10-09T12:49:12.730Z,38.9
2022-10-09T12:50:12.585Z,39.8
2022-10-09T12:51:12.632Z,38.8
2022-10-09T12:52:12.898Z,39
2022-10-09T12:53:12.463Z,39.7
2022-10-09T12:54:12.474Z,40.3
2022-10-09T12:55:12.769Z,40.4
2022-10-09T12:56:12.460Z,40
2022-10-09T12:57:12.448Z,38.7
2022-10-09T12:58:13.189Z,38.1
2022-10-09T12:59:12.592Z,38.5
2022-10-09T13:00:12.522Z,39.5
2022-10-09T13:01:12.615Z,39.4
2022-10-09T13:02:12.642Z,38.7
2022-10-09T13:03:13.100Z,40.4
2022-10-09T13:04:13.111Z,38.9
2022-10-09T13:05:13.123Z,39.4
2022-10-09T13:06:13.023Z,38.9
2022-10-09T13:07:11.515Z,40
2022-10-09T13:08:12.560Z,39.4
2022-10-09T13:09:12.471Z,38.6
2022-10-09T13:10:12.737Z,39.7
2022-10-09T13:11:13.003Z,39.6
2022-10-09T13:12:13.102Z,39.6
2022-10-09T13:13:12.457Z,40
2022-10-09T13:14:12.461Z,38.7
2022-10-09T13:15:14.920Z,39.3
2022-10-09T13:16:12.624Z,39
2022-10-09T13:17:13.356Z,39.7
2022-10-09T13:18:12.461Z,40.3
2022-10-09T13:19:12.451Z,40.2
2022-10-09T13:20:12.917Z,40.4
2022-10-09T13:21:13.214Z,39.3
2022-10-09T13:22:13.136Z,40.3
2022-10-09T13:23:12.454Z,39.7
2022-10-09T13:24:12.647Z,38.8
2022-10-09T13:25:12.491Z,39.6
2022-10-09T13:26:12.544Z,40.5
2022-10-09T13:27:12.910Z,39.1
2022-10-09T13:28:12.132Z,40.4
2022-10-09T13:29:12.458Z,38.7
2022-10-09T13:30:12.573Z,37.8
2022-10-09T13:31:12.868Z,38.8
2022-10-09T13:32:12.662Z,38.4
2022-10-09T13:33:12.482Z,39.6